createdAt,value
2022-12-22T00:05:18.174Z,7.00
2022-12-22T00:10:38.582Z,7.00
2022-12-22T00:16:00.537Z,7.00
2022-12-22T00:21:20.862Z,7.00
2022-12-22T00:26:41.044Z,7.00
2022-12-22T00:32:04.095Z,6.90
2022-12-22T00:37:24.507Z,7.00
2022-12-22T00:42:44.849Z,6.90
2022-12-22T00:48:06.958Z,6.90
2022-12-22T00:53:28.646Z,6.90
2022-12-22T00:58:49.535Z,6.80
2022-12-22T01:04:11.539Z,6.80
2022-12-22T01:09:32.319Z,6.80
2022-12-22T01:14:53.073Z,6.80
2022-12-22T01:20:15.085Z,6.70
2022-12-22T01:25:39.414Z,6.70
2022-12-22T01:31:00.437Z,6.70
2022-12-22T01:36:23.246Z,6.70
2022-12-22T01:41:44.406Z,6.70
2022-12-22T01:47:06.201Z,6.70
2022-12-22T01:52:30.911Z,6.60
2022-12-22T01:57:52.168Z,6.70
2022-12-22T02:03:12.828Z,6.70
2022-12-22T02:08:43.189Z,6.60
2022-12-22T02:14:16.064Z,6.60
2022-12-22T02:19:51.800Z,6.60
2022-12-22T02:25:21.378Z,6.50
2022-12-22T02:30:46.075Z,6.50
2022-12-22T02:36:17.036Z,6.50
2022-12-22T02:41:49.155Z,6.60
2022-12-22T02:47:19.251Z,6.60
2022-12-22T02:52:45.699Z,6.70
2022-12-22T02:58:09.596Z,6.70
2022-12-22T03:03:31.617Z,6.70
2022-12-22T03:08:52.347Z,6.80
2022-12-22T03:14:12.798Z,6.80
2022-12-22T03:19:34.603Z,6.80
2022-12-22T03:24:55.005Z,6.80
2022-12-22T03:29:58.184Z,6.90
2022-12-22T03:35:02.714Z,7.00
2022-12-22T03:40:06.876Z,7.10
2022-12-22T03:45:29.330Z,7.10
2022-12-22T03:50:33.954Z,7.20
2022-12-22T03:55:37.040Z,7.30
2022-12-22T04:00:40.308Z,7.40
2022-12-22T04:05:46.413Z,7.60
2022-12-22T04:11:06.962Z,7.80
2022-12-22T04:16:10.132Z,8.00
2022-12-22T04:21:14.647Z,8.10
2022-12-22T04:26:18.120Z,8.30
2022-12-22T04:31:22.282Z,8.40
2022-12-22T04:36:26.814Z,8.50
2022-12-22T04:41:30.080Z,8.60
2022-12-22T04:46:33.530Z,8.70
2022-12-22T04:51:38.142Z,8.80
2022-12-22T04:56:41.260Z,8.90
2022-12-22T05:01:44.640Z,8.90
2022-12-22T05:06:49.262Z,9.00
2022-12-22T05:11:52.370Z,9.00
2022-12-22T05:16:55.574Z,9.10
2022-12-22T05:22:00.047Z,9.10
2022-12-22T05:27:03.226Z,9.10
2022-12-22T05:32:06.529Z,9.20
2022-12-22T05:37:11.081Z,9.20
2022-12-22T05:42:14.350Z,9.30
2022-12-22T05:47:17.454Z,9.30
2022-12-22T05:52:21.969Z,9.30
2022-12-22T05:57:25.143Z,9.30
2022-12-22T06:02:28.683Z,9.30
2022-12-22T06:07:33.296Z,9.30
2022-12-22T06:12:36.425Z,9.30
2022-12-22T06:17:44.619Z,9.30
2022-12-22T06:22:49.828Z,9.20
2022-12-22T06:27:52.899Z,9.10
2022-12-22T06:32:55.962Z,9.10
2022-12-22T06:38:00.496Z,9.10
2022-12-22T06:43:10.300Z,9.30
2022-12-22T06:48:14.877Z,9.50
2022-12-22T06:53:19.324Z,9.80
2022-12-22T06:58:22.427Z,10.00
2022-12-22T07:03:25.663Z,10.20
2022-12-22T07:08:30.406Z,10.40
2022-12-22T07:13:35.641Z,10.50
2022-12-22T07:18:40.794Z,10.70
2022-12-22T07:23:45.274Z,10.80
2022-12-22T07:28:48.394Z,10.90
2022-12-22T07:33:51.480Z,11.00
2022-12-22T07:38:55.909Z,11.10
2022-12-22T07:44:00.360Z,11.20
2022-12-22T07:49:21.559Z,11.30
2022-12-22T07:54:27.353Z,11.40
2022-12-22T07:59:30.483Z,11.40
2022-12-22T08:04:33.680Z,11.50
2022-12-22T08:09:38.709Z,11.60
2022-12-22T08:14:45.800Z,11.60
2022-12-22T08:19:49.732Z,11.70
2022-12-22T08:24:55.376Z,11.80
2022-12-22T08:30:01.914Z,11.90
2022-12-22T08:35:06.187Z,12.10
2022-12-22T08:40:15.478Z,12.20
2022-12-22T08:45:18.680Z,12.40
2022-12-22T08:50:21.867Z,12.50
2022-12-22T08:55:26.431Z,12.60
2022-12-22T09:00:29.631Z,12.70
2022-12-22T09:05:34.330Z,12.90
2022-12-22T09:10:38.807Z,13.00
2022-12-22T09:15:41.881Z,13.20
2022-12-22T09:20:44.981Z,13.30
2022-12-22T09:25:49.473Z,13.30
2022-12-22T09:30:53.420Z,13.30
2022-12-22T09:35:56.522Z,13.30
2022-12-22T09:41:01.134Z,13.30
2022-12-22T09:46:04.572Z,13.30
2022-12-22T09:51:14.212Z,13.50
2022-12-22T09:56:19.496Z,13.60
2022-12-22T10:01:37.285Z,13.70
2022-12-22T10:06:46.435Z,13.70
2022-12-22T10:11:54.982Z,13.70
2022-12-22T10:17:17.150Z,13.70
2022-12-22T10:22:27.452Z,13.70
2022-12-22T10:27:38.574Z,13.70
2022-12-22T10:32:45.006Z,13.80
2022-12-22T10:37:48.357Z,13.80
2022-12-22T10:42:57.488Z,13.80
2022-12-22T10:48:01.062Z,13.90
2022-12-22T10:53:05.265Z,13.90
2022-12-22T10:58:17.457Z,13.90
2022-12-22T11:03:31.043Z,13.90
2022-12-22T11:08:34.281Z,13.90
2022-12-22T11:13:57.647Z,14.00
2022-12-22T11:19:11.623Z,14.00
2022-12-22T11:24:29.991Z,14.00
2022-12-22T11:30:03.459Z,13.90
2022-12-22T11:35:12.983Z,14.00
2022-12-22T11:40:25.645Z,13.90
2022-12-22T11:45:52.756Z,13.80
2022-12-22T11:51:09.215Z,13.70
2022-12-22T11:56:23.570Z,13.50
2022-12-22T12:01:44.463Z,13.30
2022-12-22T12:07:06.870Z,13.10
2022-12-22T12:12:18.099Z,12.90
2022-12-22T12:17:31.182Z,12.80
2022-12-22T12:22:45.757Z,12.80
2022-12-22T12:28:02.202Z,12.70
2022-12-22T12:33:18.105Z,12.70
2022-12-22T12:39:06.140Z,12.70
2022-12-22T12:43:58.154Z,12.70
2022-12-22T12:49:02.711Z,12.70
2022-12-22T12:54:37.099Z,12.70
2022-12-22T12:59:50.208Z,12.60
2022-12-22T13:05:36.684Z,12.60
2022-12-22T13:10:44.929Z,12.50
2022-12-22T13:15:48.327Z,12.50
2022-12-22T13:21:12.221Z,12.50
2022-12-22T13:26:24.327Z,12.50
2022-12-22T13:31:34.787Z,12.50
2022-12-22T13:36:38.566Z,12.60
2022-12-22T13:41:45.647Z,12.60
2022-12-22T13:46:48.932Z,12.60
2022-12-22T13:51:53.079Z,12.60
2022-12-22T13:56:59.616Z,12.70
2022-12-22T14:02:05.553Z,12.70
2022-12-22T14:07:12.766Z,12.80
2022-12-22T14:12:20.572Z,12.90
2022-12-22T14:17:26.873Z,13.00
2022-12-22T14:22:36.942Z,13.10
2022-12-22T14:27:44.831Z,13.10
2022-12-22T14:32:54.798Z,13.20
2022-12-22T14:38:18.571Z,13.20
2022-12-22T14:43:32.461Z,13.30
2022-12-22T14:48:39.126Z,13.40
2022-12-22T14:53:46.867Z,13.40
2022-12-22T14:58:51.872Z,13.50
2022-12-22T15:04:02.226Z,13.50
2022-12-22T15:10:03.594Z,13.50
2022-12-22T15:14:50.341Z,13.50
2022-12-22T15:19:57.596Z,13.60
2022-12-22T15:25:00.945Z,13.60
2022-12-22T15:30:06.152Z,13.60
2022-12-22T15:35:21.860Z,13.60
2022-12-22T15:40:26.604Z,13.70
2022-12-22T15:45:31.529Z,13.70
2022-12-22T15:50:39.188Z,13.70
2022-12-22T15:55:44.137Z,13.70
2022-12-22T16:00:48.793Z,13.70
2022-12-22T16:05:52.839Z,13.70
2022-12-22T16:10:56.030Z,13.70
2022-12-22T16:16:00.807Z,13.70
2022-12-22T16:21:08.030Z,13.70
2022-12-22T16:26:16.854Z,13.60
2022-12-22T16:31:22.982Z,13.60
2022-12-22T16:36:26.247Z,13.50
2022-12-22T16:41:29.514Z,13.50
2022-12-22T16:46:37.641Z,13.50
2022-12-22T16:51:47.155Z,13.40
2022-12-22T16:56:51.538Z,13.40
2022-12-22T17:01:57.553Z,13.40
2022-12-22T17:07:02.867Z,13.30
2022-12-22T17:12:07.286Z,13.30
2022-12-22T17:17:16.518Z,13.20
2022-12-22T17:22:23.394Z,13.20
2022-12-22T17:27:29.190Z,13.20
2022-12-22T17:32:33.636Z,13.20
2022-12-22T17:37:36.760Z,13.20
2022-12-22T17:42:39.833Z,13.20
2022-12-22T17:47:44.826Z,13.20
2022-12-22T17:52:48.816Z,13.20
2022-12-22T17:57:52.140Z,13.20
2022-12-22T18:02:57.148Z,13.20
2022-12-22T18:08:01.865Z,13.20
2022-12-22T18:13:11.682Z,13.20
2022-12-22T18:18:18.160Z,13.30
2022-12-22T18:23:24.759Z,13.30
2022-12-22T18:28:27.814Z,13.30
2022-12-22T18:33:32.282Z,13.30
2022-12-22T18:38:36.405Z,13.30
2022-12-22T18:43:39.759Z,13.30
2022-12-22T18:48:44.203Z,13.30
2022-12-22T18:53:47.355Z,13.30
2022-12-22T18:58:50.550Z,13.30
2022-12-22T19:03:58.909Z,13.30
2022-12-22T19:09:02.043Z,13.30
2022-12-22T19:14:05.171Z,13.30
2022-12-22T19:19:16.023Z,13.20
2022-12-22T19:24:19.205Z,13.20
2022-12-22T19:29:22.403Z,13.20
2022-12-22T19:34:26.923Z,13.20
2022-12-22T19:39:30.052Z,13.10
2022-12-22T19:44:34.469Z,13.10
2022-12-22T19:49:39.953Z,13.10
2022-12-22T19:54:43.059Z,13.10
2022-12-22T19:59:48.308Z,13.10
2022-12-22T20:04:53.742Z,13.10
2022-12-22T20:09:57.046Z,13.00
2022-12-22T20:15:01.061Z,13.00
2022-12-22T20:20:06.623Z,13.00
2022-12-22T20:25:15.972Z,12.90
2022-12-22T20:30:21.942Z,12.80
2022-12-22T20:35:26.741Z,12.80
2022-12-22T20:40:32.258Z,12.70
2022-12-22T20:45:35.637Z,12.70
2022-12-22T20:50:40.309Z,12.60
2022-12-22T20:55:43.512Z,12.50
2022-12-22T21:00:46.713Z,12.50
2022-12-22T21:05:51.307Z,12.50
2022-12-22T21:10:56.478Z,12.40
2022-12-22T21:15:59.721Z,12.30
2022-12-22T21:21:04.298Z,12.20
2022-12-22T21:26:16.425Z,12.10
2022-12-22T21:31:19.630Z,12.00
2022-12-22T21:36:28.990Z,12.00
2022-12-22T21:41:49.471Z,11.90
2022-12-22T21:46:53.331Z,11.90
2022-12-22T21:51:58.152Z,11.90
2022-12-22T21:57:01.376Z,12.00
2022-12-22T22:02:04.601Z,12.00
2022-12-22T22:07:09.157Z,12.00
2022-12-22T22:12:29.785Z,12.00
2022-12-22T22:17:33.150Z,12.00
2022-12-22T22:22:37.681Z,12.00
2022-12-22T22:27:45.920Z,12.10
2022-12-22T22:32:51.078Z,12.10
2022-12-22T22:37:56.007Z,12.30
2022-12-22T22:42:59.209Z,12.30
2022-12-22T22:48:07.779Z,12.40
2022-12-22T22:53:15.166Z,12.40
2022-12-22T22:58:18.273Z,12.50
2022-12-22T23:03:21.467Z,12.50
2022-12-22T23:08:26.069Z,12.50
2022-12-22T23:13:29.629Z,12.50
2022-12-22T23:18:33.593Z,12.50
2022-12-22T23:23:38.462Z,12.50
2022-12-22T23:28:41.614Z,12.60
2022-12-22T23:33:44.798Z,12.60
2022-12-22T23:38:51.082Z,12.50
2022-12-22T23:43:55.146Z,12.50
2022-12-22T23:48:59.446Z,12.50
2022-12-22T23:54:04.022Z,12.50
2022-12-22T23:59:07.122Z,12.50
